This is the latest recevied weather packets stored in our database for station/object OK2KJT-11. If no packets are shown the sender has not sent any weather packets the latest 10 day(s).
| Time | Temp. | Humidity | Pressure | Rain* | Wind** | Luminosity | Snow |
|---|---|---|---|---|---|---|---|
| 1787691819 | 11.11° C | 96% | 1018.8 hPa | - | - | - | - |
| 1787691220 | 10.56° C | 96% | 1018.7 hPa | - | - | - | - |
| 1787690620 | 10.56° C | 96% | 1018.6 hPa | - | - | - | - |
| 1787690020 | 11.11° C | 95% | 1018.8 hPa | - | - | - | - |
| 1787689421 | 11.11° C | 95% | 1018.8 hPa | - | - | - | - |
| 1787688821 | 11.11° C | 95% | 1018.7 hPa | - | - | - | - |
| 1787688221 | 11.11° C | 94% | 1018.7 hPa | - | - | - | - |
| 1787687621 | 11.11° C | 93% | 1018.8 hPa | - | - | - | - |
| 1787687022 | 11.11° C | 93% | 1018.8 hPa | - | - | - | - |
| 1787686422 | 11.67° C | 91% | 1018.8 hPa | - | - | - | - |
| 1787685822 | 11.67° C | 90% | 1018.8 hPa | - | - | - | - |
| 1787685222 | 11.67° C | 89% | 1018.7 hPa | - | - | - | - |
| 1787684622 | 12.22° C | 86% | 1018.6 hPa | - | - | - | - |
| 1787684023 | 12.78° C | 84% | 1018.6 hPa | - | - | - | - |
| 1787683430 | 12.78° C | 81% | 1018.6 hPa | - | - | - | - |
| 1787682823 | 13.33° C | 79% | 1018.4 hPa | - | - | - | - |
| 1787682224 | 12.78° C | 80% | 1018.4 hPa | - | - | - | - |
| 1787681624 | 12.78° C | 81% | 1018.1 hPa | - | - | - | - |
| 1787681024 | 12.78° C | 83% | 1018.1 hPa | - | - | - | - |
| 1787680424 | 12.78° C | 82% | 1018 hPa | - | - | - | - |
| 1787679824 | 12.78° C | 82% | 1017.8 hPa | - | - | - | - |
| 1787679224 | 12.78° C | 82% | 1017.8 hPa | - | - | - | - |
| 1787678624 | 12.78° C | 82% | 1017.7 hPa | - | - | - | - |
| 1787678024 | 13.33° C | 80% | 1017.8 hPa | - | - | - | - |
| 1787677425 | 13.33° C | 78% | 1018 hPa | - | - | - | - |
* Rain since midnight (hover to see other rain measurements)
** Current wind speed in m/s (hover to see current wind gust speed)